createdAt,value
2022-07-25T00:52:11.473Z,22.30
2022-07-25T00:55:01.159Z,21.90
2022-07-25T00:57:49.397Z,21.90
2022-07-25T01:00:37.670Z,21.90
2022-07-25T01:03:26.084Z,21.90
2022-07-25T01:06:14.419Z,21.90
2022-07-25T01:09:02.857Z,21.80
2022-07-25T01:11:52.434Z,21.80
2022-07-25T01:14:40.803Z,21.80
2022-07-25T01:17:29.959Z,21.80
2022-07-25T01:20:20.379Z,21.70
2022-07-25T01:23:08.533Z,21.70
2022-07-25T01:25:56.778Z,21.70
2022-07-25T01:28:46.602Z,21.70
2022-07-25T01:31:34.983Z,21.70
2022-07-25T01:34:23.468Z,21.70
2022-07-25T01:37:12.999Z,21.60
2022-07-25T01:40:01.402Z,21.60
2022-07-25T01:42:49.571Z,21.60
2022-07-25T01:45:38.323Z,21.60
2022-07-25T01:48:26.778Z,21.60
2022-07-25T01:51:15.052Z,21.60
2022-07-25T01:54:11.719Z,21.60
2022-07-25T01:57:00.191Z,21.50
2022-07-25T01:59:49.105Z,21.50
2022-07-25T02:02:37.630Z,21.50
2022-07-25T02:05:25.895Z,21.40
2022-07-25T02:08:14.169Z,21.40
2022-07-25T02:11:05.457Z,21.40
2022-07-25T02:13:53.605Z,21.40
2022-07-25T02:16:41.925Z,21.30
2022-07-25T02:19:31.727Z,21.30
2022-07-25T02:22:19.974Z,21.30
2022-07-25T02:25:08.801Z,21.20
2022-07-25T02:27:58.506Z,21.20
2022-07-25T02:30:46.796Z,21.20
2022-07-25T02:33:37.472Z,21.20
2022-07-25T02:36:25.694Z,21.10
2022-07-25T02:39:14.336Z,21.10
2022-07-25T02:42:02.758Z,21.10
2022-07-25T02:44:52.319Z,21.10
2022-07-25T02:47:40.613Z,21.10
2022-07-25T02:50:29.041Z,21.00
2022-07-25T02:53:28.945Z,21.00
2022-07-25T02:56:25.861Z,20.90
2022-07-25T02:59:15.198Z,20.90
2022-07-25T03:02:04.817Z,20.90
2022-07-25T03:04:53.030Z,20.80
2022-07-25T03:07:42.256Z,20.80
2022-07-25T03:10:31.651Z,20.80
2022-07-25T03:13:19.890Z,20.80
2022-07-25T03:16:11.264Z,20.80
2022-07-25T03:19:02.944Z,20.80
2022-07-25T03:21:51.246Z,20.70
2022-07-25T03:24:39.870Z,20.70
2022-07-25T03:27:28.199Z,20.70
2022-07-25T03:30:16.509Z,20.70
2022-07-25T03:33:04.800Z,20.70
2022-07-25T03:35:54.554Z,20.70
2022-07-25T03:38:43.113Z,20.60
2022-07-25T03:41:31.312Z,20.60
2022-07-25T03:44:19.600Z,20.50
2022-07-25T03:47:07.916Z,20.50
2022-07-25T03:49:56.902Z,20.50
2022-07-25T03:52:46.444Z,20.60
2022-07-25T03:55:35.391Z,20.50
2022-07-25T03:58:23.711Z,20.50
2022-07-25T04:01:14.466Z,20.50
2022-07-25T04:04:04.163Z,20.50
2022-07-25T04:06:52.863Z,20.50
2022-07-25T04:09:45.549Z,20.50
2022-07-25T04:12:33.930Z,20.50
2022-07-25T04:15:22.112Z,20.50
2022-07-25T04:18:14.231Z,20.50
2022-07-25T04:21:07.247Z,20.50
2022-07-25T04:23:57.781Z,20.50
2022-07-25T04:26:48.432Z,20.50
2022-07-25T04:29:36.873Z,20.50
2022-07-25T04:32:25.229Z,20.50
2022-07-25T04:35:13.534Z,20.60
2022-07-25T04:38:02.395Z,20.60
2022-07-25T04:40:50.621Z,20.60
2022-07-25T04:43:43.655Z,20.60
2022-07-25T04:46:34.783Z,20.70
2022-07-25T04:49:23.003Z,20.70
2022-07-25T04:52:11.295Z,20.80
2022-07-25T04:54:59.750Z,20.80
2022-07-25T04:57:48.629Z,20.80
2022-07-25T05:00:38.571Z,20.90
2022-07-25T05:03:27.382Z,20.90
2022-07-25T05:06:15.667Z,20.90
2022-07-25T05:09:08.106Z,21.00
2022-07-25T05:11:56.441Z,21.00
2022-07-25T05:14:44.946Z,21.00
2022-07-25T05:17:34.811Z,21.00
2022-07-25T05:20:25.339Z,21.10
2022-07-25T05:23:13.574Z,21.10
2022-07-25T05:26:01.777Z,21.10
2022-07-25T05:28:50.255Z,21.20
2022-07-25T05:31:39.038Z,21.20
2022-07-25T05:34:28.744Z,21.30
2022-07-25T05:37:17.123Z,21.30
2022-07-25T05:40:08.169Z,21.40
2022-07-25T05:43:00.920Z,21.40
2022-07-25T05:45:51.117Z,21.50
2022-07-25T05:48:39.446Z,21.50
2022-07-25T05:51:29.286Z,21.60
2022-07-25T05:54:19.303Z,21.70
2022-07-25T05:57:07.942Z,21.70
2022-07-25T05:59:56.995Z,21.80
2022-07-25T06:02:45.308Z,21.90
2022-07-25T06:05:33.727Z,21.90
2022-07-25T06:08:23.950Z,22.00
2022-07-25T06:11:13.207Z,22.00
2022-07-25T06:14:01.643Z,22.10
2022-07-25T06:16:50.254Z,22.10
2022-07-25T06:19:38.580Z,22.20
2022-07-25T06:22:26.814Z,22.20
2022-07-25T06:25:16.544Z,22.30
2022-07-25T06:28:05.717Z,22.40
2022-07-25T06:30:58.892Z,22.40
2022-07-25T06:33:47.210Z,22.50
2022-07-25T06:36:35.660Z,22.50
2022-07-25T06:39:24.054Z,22.60
2022-07-25T06:42:13.735Z,22.60
2022-07-25T06:45:04.931Z,22.60
2022-07-25T06:47:53.146Z,22.70
2022-07-25T06:50:41.561Z,22.80
2022-07-25T06:53:29.810Z,22.90
2022-07-25T06:56:18.025Z,23.00
2022-07-25T06:59:07.749Z,23.00
2022-07-25T07:01:58.262Z,23.10
2022-07-25T07:04:46.473Z,23.20
2022-07-25T07:07:34.634Z,23.30
2022-07-25T07:10:26.337Z,23.30
2022-07-25T07:13:23.755Z,23.40
2022-07-25T07:16:14.385Z,23.50
2022-07-25T07:19:02.691Z,23.50
2022-07-25T07:21:51.435Z,23.60
2022-07-25T07:24:44.111Z,23.60
2022-07-25T07:27:37.178Z,23.70
2022-07-25T07:30:38.722Z,23.80
2022-07-25T07:33:36.685Z,24.00
2022-07-25T07:36:25.694Z,24.10
2022-07-25T07:39:16.623Z,24.20
2022-07-25T07:42:05.260Z,24.40
2022-07-25T07:44:53.508Z,24.50
2022-07-25T07:47:42.771Z,24.60
2022-07-25T07:50:32.557Z,24.70
2022-07-25T07:53:20.969Z,24.80
2022-07-25T07:56:08.553Z,24.90
2022-07-25T07:59:00.503Z,25.00
2022-07-25T08:01:51.682Z,25.20
2022-07-25T08:04:40.040Z,25.20
2022-07-25T08:07:32.191Z,25.20
2022-07-25T08:10:22.162Z,25.30
2022-07-25T08:13:15.457Z,25.40
2022-07-25T08:16:04.338Z,25.50
2022-07-25T08:18:52.641Z,25.60
2022-07-25T08:21:41.195Z,25.80
2022-07-25T08:24:30.979Z,25.90
2022-07-25T08:27:19.481Z,25.90
2022-07-25T08:30:09.228Z,26.00
2022-07-25T08:32:59.698Z,26.10
2022-07-25T08:35:49.694Z,26.10
2022-07-25T08:38:38.975Z,26.30
2022-07-25T08:41:28.695Z,26.50
2022-07-25T08:44:19.705Z,26.60
2022-07-25T08:47:09.649Z,26.80
2022-07-25T08:50:03.898Z,26.90
2022-07-25T08:53:04.899Z,27.10
2022-07-25T08:56:05.361Z,27.20
2022-07-25T08:58:59.831Z,27.40
2022-07-25T09:01:48.179Z,27.40
2022-07-25T09:04:36.463Z,27.60
2022-07-25T09:07:32.661Z,27.70
2022-07-25T09:10:22.922Z,27.90
2022-07-25T09:13:14.141Z,27.90
2022-07-25T09:16:05.604Z,28.00
2022-07-25T09:19:14.261Z,28.20
2022-07-25T09:22:04.319Z,28.30
2022-07-25T09:24:52.514Z,28.40
2022-07-25T09:27:40.817Z,28.60
2022-07-25T09:30:29.241Z,28.70
2022-07-25T09:33:18.867Z,28.80
2022-07-25T09:36:12.906Z,28.90
2022-07-25T09:39:04.697Z,29.00
2022-07-25T09:41:53.177Z,29.10
2022-07-25T09:44:41.549Z,29.30
2022-07-25T09:47:30.581Z,29.30
2022-07-25T09:50:21.105Z,29.40
2022-07-25T09:53:09.479Z,29.50
2022-07-25T09:55:57.952Z,29.50
2022-07-25T09:58:46.566Z,29.60
2022-07-25T10:01:37.991Z,29.60
2022-07-25T10:04:37.994Z,29.70
2022-07-25T10:07:31.508Z,29.80
2022-07-25T10:10:26.147Z,29.90
2022-07-25T10:13:17.860Z,30.00
2022-07-25T10:16:19.177Z,30.10
2022-07-25T10:19:07.513Z,30.10
2022-07-25T10:21:56.519Z,30.20
2022-07-25T10:24:49.012Z,30.30
2022-07-25T10:27:44.444Z,30.30
2022-07-25T10:30:36.920Z,30.30
2022-07-25T10:33:26.449Z,30.30
2022-07-25T10:36:14.697Z,30.40
2022-07-25T10:39:03.175Z,30.30
2022-07-25T10:41:54.466Z,30.40
2022-07-25T10:44:44.792Z,30.40
2022-07-25T10:47:39.185Z,30.50
2022-07-25T10:50:53.297Z,30.50
2022-07-25T10:53:39.384Z,30.50
2022-07-25T10:56:29.194Z,30.50
2022-07-25T10:59:28.796Z,30.50
2022-07-25T11:02:17.255Z,30.60
2022-07-25T11:05:06.214Z,30.70
2022-07-25T11:08:20.785Z,30.70
2022-07-25T11:11:05.722Z,30.70
2022-07-25T11:13:54.919Z,30.70
2022-07-25T11:16:48.820Z,30.70
2022-07-25T11:19:40.003Z,30.70
2022-07-25T11:22:29.853Z,30.70
2022-07-25T11:25:19.638Z,30.70
2022-07-25T11:28:08.491Z,30.70
2022-07-25T11:31:04.517Z,30.70
2022-07-25T11:33:54.251Z,30.80
2022-07-25T11:36:42.581Z,30.90
2022-07-25T11:39:34.094Z,30.90
2022-07-25T11:42:22.899Z,30.90
2022-07-25T11:45:19.582Z,31.00
2022-07-25T11:48:09.958Z,31.00
2022-07-25T11:50:59.722Z,31.10
2022-07-25T11:53:50.277Z,31.20
2022-07-25T11:56:43.019Z,31.20
2022-07-25T11:59:42.241Z,31.30
2022-07-25T12:02:32.918Z,31.40
2022-07-25T12:05:23.119Z,31.60
2022-07-25T12:08:14.346Z,31.70
2022-07-25T12:11:02.575Z,31.80
2022-07-25T12:13:51.613Z,32.00
2022-07-25T12:16:40.356Z,32.10
2022-07-25T12:19:28.630Z,32.20
2022-07-25T12:22:16.898Z,32.30
2022-07-25T12:25:07.571Z,32.50
2022-07-25T12:27:55.788Z,32.60
2022-07-25T12:30:45.767Z,32.70
2022-07-25T12:33:34.586Z,32.70
2022-07-25T12:36:22.862Z,32.70
2022-07-25T12:39:11.271Z,32.70
2022-07-25T12:42:00.857Z,32.60
2022-07-25T12:44:49.063Z,32.80
2022-07-25T12:47:37.454Z,32.80
2022-07-25T12:50:26.124Z,32.90
2022-07-25T12:53:14.914Z,32.80
2022-07-25T12:56:03.346Z,32.80
2022-07-25T12:58:53.054Z,32.70
2022-07-25T13:01:41.302Z,32.60
2022-07-25T13:04:29.782Z,32.40
2022-07-25T13:07:18.052Z,32.30
2022-07-25T13:10:07.208Z,32.20
2022-07-25T13:12:56.341Z,32.10
2022-07-25T13:15:46.301Z,32.10
2022-07-25T13:18:34.569Z,32.10
2022-07-25T13:21:22.803Z,32.10
2022-07-25T13:24:12.388Z,32.10
2022-07-25T13:27:01.337Z,32.10
2022-07-25T13:29:54.540Z,32.10
2022-07-25T13:32:45.254Z,32.00
2022-07-25T13:35:38.849Z,32.00
2022-07-25T13:38:27.682Z,32.10
2022-07-25T13:41:15.997Z,32.00
2022-07-25T13:44:04.650Z,32.00
2022-07-25T13:46:53.391Z,32.00
2022-07-25T13:49:43.119Z,32.10
2022-07-25T13:52:31.294Z,32.20
2022-07-25T13:55:20.845Z,32.20
2022-07-25T13:58:09.098Z,32.20
2022-07-25T14:00:57.542Z,32.20
2022-07-25T14:03:46.754Z,32.10
2022-07-25T14:06:36.307Z,32.00
2022-07-25T14:09:24.484Z,31.80
2022-07-25T14:12:12.689Z,31.70
2022-07-25T14:15:00.923Z,31.60
2022-07-25T14:17:49.578Z,31.40
2022-07-25T14:20:40.167Z,30.80
2022-07-25T14:23:30.314Z,30.50
2022-07-25T14:26:18.658Z,30.30
2022-07-25T14:29:11.208Z,30.00
2022-07-25T14:31:59.610Z,29.60
2022-07-25T14:34:49.541Z,29.50
2022-07-25T14:37:38.146Z,29.20
2022-07-25T14:40:30.499Z,28.90
2022-07-25T14:43:18.873Z,28.90
2022-07-25T14:46:07.990Z,28.90
2022-07-25T14:48:56.482Z,28.70
2022-07-25T14:51:45.286Z,28.60
2022-07-25T14:54:33.649Z,28.20
2022-07-25T14:57:23.237Z,28.00
2022-07-25T15:00:12.857Z,27.90
2022-07-25T15:03:03.331Z,27.60
2022-07-25T15:05:51.798Z,27.20
2022-07-25T15:08:40.371Z,27.10
2022-07-25T15:11:31.047Z,26.70
2022-07-25T15:14:20.654Z,26.30
2022-07-25T15:17:08.985Z,26.30
2022-07-25T15:19:57.581Z,26.10
2022-07-25T15:22:46.567Z,25.90
2022-07-25T15:26:00.465Z,25.80
2022-07-25T15:28:43.635Z,25.60
2022-07-25T15:31:33.506Z,25.40
2022-07-25T15:34:21.808Z,25.30
2022-07-25T15:37:11.723Z,25.10
2022-07-25T15:40:00.337Z,24.80
2022-07-25T15:42:48.574Z,24.60
2022-07-25T15:45:39.917Z,24.50
2022-07-25T15:48:29.783Z,24.30
2022-07-25T15:51:18.228Z,24.30
2022-07-25T15:54:06.729Z,24.00
2022-07-25T15:56:55.041Z,23.90
2022-07-25T15:59:43.295Z,23.60
2022-07-25T16:02:31.575Z,23.40
2022-07-25T16:05:21.679Z,23.30
2022-07-25T16:08:11.028Z,23.20
2022-07-25T16:11:00.072Z,23.10
2022-07-25T16:13:50.748Z,23.10
2022-07-25T16:16:39.198Z,23.00
2022-07-25T16:19:27.424Z,23.00
2022-07-25T16:22:17.103Z,23.00
2022-07-25T16:25:06.231Z,23.00
2022-07-25T16:27:54.733Z,23.00
2022-07-25T16:30:42.987Z,22.90
2022-07-25T16:33:31.278Z,22.70
2022-07-25T16:36:20.363Z,22.80
2022-07-25T16:39:10.658Z,22.80
2022-07-25T16:41:59.490Z,22.70
2022-07-25T16:44:48.589Z,22.70
2022-07-25T16:47:37.004Z,22.70
2022-07-25T16:50:26.371Z,22.70
2022-07-25T16:53:15.670Z,22.70
2022-07-25T16:56:08.630Z,22.70
2022-07-25T16:58:56.897Z,22.70
2022-07-25T17:01:46.425Z,22.70
2022-07-25T17:04:35.133Z,22.70
2022-07-25T17:07:23.466Z,22.70
2022-07-25T17:10:12.018Z,22.60
2022-07-25T17:13:02.081Z,22.60
2022-07-25T17:15:50.654Z,22.60
2022-07-25T17:18:40.056Z,22.60
2022-07-25T17:21:28.230Z,22.60
2022-07-25T17:24:16.664Z,22.50
2022-07-25T17:27:05.264Z,22.40
2022-07-25T17:29:55.851Z,22.30
2022-07-25T17:32:44.366Z,22.20
2022-07-25T17:35:32.617Z,22.20
2022-07-25T17:38:25.865Z,22.20
2022-07-25T17:41:15.296Z,22.20
2022-07-25T17:44:09.939Z,22.20
2022-07-25T17:47:02.911Z,22.20
2022-07-25T17:49:51.372Z,22.20
2022-07-25T17:52:39.857Z,22.10
2022-07-25T17:55:29.831Z,22.10
2022-07-25T17:58:19.925Z,22.00
2022-07-25T18:01:10.480Z,22.00
2022-07-25T18:04:00.416Z,21.90
2022-07-25T18:06:50.317Z,21.90
2022-07-25T18:09:38.713Z,21.90
2022-07-25T18:12:29.548Z,21.80
2022-07-25T18:15:18.334Z,21.80
2022-07-25T18:18:10.315Z,21.80
2022-07-25T18:21:01.059Z,21.70
2022-07-25T18:23:49.354Z,21.60
2022-07-25T18:26:37.839Z,21.60
2022-07-25T18:29:27.503Z,21.60
2022-07-25T18:32:15.755Z,21.50
2022-07-25T18:35:04.161Z,21.50
2022-07-25T18:37:53.816Z,21.50
2022-07-25T18:40:42.284Z,21.50
2022-07-25T18:43:30.639Z,21.40
2022-07-25T18:46:19.103Z,21.40
2022-07-25T18:49:08.298Z,21.40
2022-07-25T18:51:56.718Z,21.40
2022-07-25T18:54:46.334Z,21.30
2022-07-25T18:57:34.825Z,21.20
2022-07-25T19:00:25.167Z,21.10
2022-07-25T19:03:13.520Z,21.10
2022-07-25T19:06:03.563Z,21.10
2022-07-25T19:08:53.246Z,21.10
2022-07-25T19:11:42.825Z,21.00
2022-07-25T19:14:31.271Z,21.00
2022-07-25T19:17:19.842Z,21.00
2022-07-25T19:20:09.737Z,20.90
2022-07-25T19:22:58.770Z,20.90
2022-07-25T19:25:47.096Z,20.80
2022-07-25T19:28:37.907Z,20.80
2022-07-25T19:31:26.552Z,20.70
2022-07-25T19:34:14.851Z,20.70
2022-07-25T19:37:03.120Z,20.70
2022-07-25T19:39:53.156Z,20.60
2022-07-25T19:42:43.131Z,20.60
2022-07-25T19:45:33.269Z,20.50
2022-07-25T19:48:23.667Z,20.50
2022-07-25T19:51:12.082Z,20.50
2022-07-25T19:54:03.306Z,20.40
2022-07-25T19:56:51.772Z,20.40
2022-07-25T19:59:40.062Z,20.30
2022-07-25T20:02:29.735Z,20.30
2022-07-25T20:05:19.026Z,20.30
2022-07-25T20:08:07.894Z,20.20
2022-07-25T20:10:56.527Z,20.20
2022-07-25T20:13:46.739Z,20.20
2022-07-25T20:16:36.070Z,20.10
2022-07-25T20:19:27.843Z,20.00
2022-07-25T20:22:17.021Z,20.00
2022-07-25T20:25:05.943Z,20.00
2022-07-25T20:27:54.297Z,19.90
2022-07-25T20:30:42.671Z,19.80
2022-07-25T20:33:32.379Z,19.80
2022-07-25T20:36:22.207Z,19.80
2022-07-25T20:39:10.886Z,19.70
2022-07-25T20:41:59.685Z,19.70
2022-07-25T20:44:48.181Z,19.60
2022-07-25T20:47:36.445Z,19.60
2022-07-25T20:50:24.941Z,19.60
2022-07-25T20:53:14.537Z,19.50
2022-07-25T20:56:03.319Z,19.50
2022-07-25T20:58:54.791Z,19.50
2022-07-25T21:01:43.173Z,19.50
2022-07-25T21:04:31.541Z,19.40
2022-07-25T21:07:21.482Z,19.40
2022-07-25T21:10:11.874Z,19.40
2022-07-25T21:13:00.243Z,19.30
2022-07-25T21:15:49.615Z,19.30
2022-07-25T21:18:43.854Z,19.30
2022-07-25T21:21:32.291Z,19.30
2022-07-25T21:24:22.336Z,19.30
2022-07-25T21:27:11.877Z,19.30
2022-07-25T21:30:00.267Z,19.30
2022-07-25T21:32:48.710Z,19.20
2022-07-25T21:35:52.875Z,19.20
2022-07-25T21:38:42.149Z,19.20
2022-07-25T21:41:31.122Z,19.10
2022-07-25T21:44:22.212Z,19.10
2022-07-25T21:47:12.686Z,19.10
2022-07-25T21:50:24.245Z,19.10
2022-07-25T21:53:15.379Z,19.10
2022-07-25T21:56:03.624Z,19.00
2022-07-25T21:58:51.974Z,19.00
2022-07-25T22:01:42.325Z,19.10
2022-07-25T22:04:30.625Z,19.00
2022-07-25T22:07:18.942Z,19.00
2022-07-25T22:10:09.104Z,19.00
2022-07-25T22:12:58.088Z,19.00
2022-07-25T22:15:47.511Z,19.00
2022-07-25T22:18:40.992Z,19.00
2022-07-25T22:21:29.394Z,19.00
2022-07-25T22:24:17.726Z,19.00
2022-07-25T22:27:06.915Z,18.90
2022-07-25T22:29:56.355Z,18.90
2022-07-25T22:32:44.577Z,18.90
2022-07-25T22:35:35.941Z,19.00
2022-07-25T22:38:24.950Z,19.00
2022-07-25T22:41:13.259Z,19.00
2022-07-25T22:44:01.478Z,19.00
2022-07-25T22:46:49.992Z,18.90
2022-07-25T22:49:38.631Z,18.90
2022-07-25T22:52:34.952Z,18.90
2022-07-25T22:55:23.182Z,18.90
2022-07-25T22:58:14.064Z,18.90
2022-07-25T23:01:02.585Z,18.80
2022-07-25T23:03:51.332Z,18.80
2022-07-25T23:06:39.633Z,18.80
2022-07-25T23:09:34.751Z,18.80
2022-07-25T23:12:24.819Z,18.80
2022-07-25T23:15:13.295Z,18.80
2022-07-25T23:18:01.965Z,18.90
2022-07-25T23:20:50.222Z,18.90
2022-07-25T23:23:38.770Z,18.90
2022-07-25T23:26:28.448Z,18.90
2022-07-25T23:29:16.710Z,18.90
2022-07-25T23:32:06.056Z,18.90
2022-07-25T23:34:54.653Z,18.90
2022-07-25T23:37:43.180Z,18.90
2022-07-25T23:40:31.842Z,18.90
2022-07-25T23:43:31.890Z,18.90
2022-07-25T23:46:31.164Z,18.80
2022-07-25T23:49:19.713Z,18.80
2022-07-25T23:52:08.085Z,18.80
2022-07-25T23:54:56.406Z,18.80
2022-07-25T23:57:44.747Z,18.80
